createdAt,value
2023-11-08T00:02:22.101Z,99863.59
2023-11-08T00:04:52.967Z,99851.97
2023-11-08T00:07:20.038Z,99854.03
2023-11-08T00:09:47.038Z,99838.03
2023-11-08T00:12:17.278Z,99842.44
2023-11-08T00:14:45.770Z,99848.34
2023-11-08T00:17:14.846Z,99849.09
2023-11-08T00:19:42.115Z,99847.06
2023-11-08T00:22:09.135Z,99851.97
2023-11-08T00:24:36.159Z,99862.84
2023-11-08T00:27:03.360Z,99856.81
2023-11-08T00:29:30.295Z,99865.88
2023-11-08T00:31:57.301Z,99866.06
2023-11-08T00:34:25.948Z,99870.00
2023-11-08T00:36:53.247Z,99867.88
2023-11-08T00:39:20.474Z,99867.81
2023-11-08T00:41:47.994Z,99862.91
2023-11-08T00:44:15.282Z,99865.22
2023-11-08T00:46:42.718Z,99868.81
2023-11-08T00:49:10.383Z,99867.00
2023-11-08T00:51:41.034Z,99867.31
2023-11-08T00:54:08.475Z,99867.84
2023-11-08T00:56:35.902Z,99868.84
2023-11-08T00:59:02.901Z,99860.88
2023-11-08T01:01:29.943Z,99867.69
2023-11-08T01:03:59.217Z,99866.53
2023-11-08T01:06:28.335Z,99862.63
2023-11-08T01:08:58.900Z,99862.53
2023-11-08T01:11:25.919Z,99857.41
2023-11-08T01:13:52.943Z,99862.50
2023-11-08T01:16:20.899Z,99865.34
2023-11-08T01:18:48.356Z,99858.28
2023-11-08T01:21:16.274Z,99864.41
2023-11-08T01:23:43.258Z,99864.38
2023-11-08T01:26:12.097Z,99857.75
2023-11-08T01:28:39.965Z,99857.09
2023-11-08T01:31:06.869Z,99853.88
2023-11-08T01:33:34.365Z,99861.84
2023-11-08T01:36:01.580Z,99853.97
2023-11-08T01:38:28.797Z,99859.22
2023-11-08T01:40:55.635Z,99858.19
2023-11-08T01:43:32.462Z,99852.25
2023-11-08T01:46:08.028Z,99851.84
2023-11-08T01:48:40.739Z,99847.19
2023-11-08T01:51:10.014Z,99846.78
2023-11-08T01:53:41.534Z,99852.38
2023-11-08T01:56:11.200Z,99848.06
2023-11-08T01:58:43.408Z,99841.34
2023-11-08T02:01:11.350Z,99849.22
2023-11-08T02:03:42.013Z,99839.38
2023-11-08T02:06:12.978Z,99848.03
2023-11-08T02:08:41.433Z,99854.00
2023-11-08T02:11:09.765Z,99847.19
2023-11-08T02:13:37.412Z,99850.44
2023-11-08T02:16:06.967Z,99848.22
2023-11-08T02:18:34.203Z,99840.53
2023-11-08T02:21:02.325Z,99849.22
2023-11-08T02:23:30.891Z,99848.44
2023-11-08T02:26:01.866Z,99850.94
2023-11-08T02:28:29.811Z,99840.56
2023-11-08T02:30:57.484Z,99851.84
2023-11-08T02:33:26.722Z,99850.31
2023-11-08T02:35:54.890Z,99846.78
2023-11-08T02:38:22.798Z,99842.00
2023-11-08T02:40:50.088Z,99839.22
2023-11-08T02:43:19.028Z,99848.16
2023-11-08T02:45:46.055Z,99854.78
2023-11-08T02:48:14.097Z,99854.19
2023-11-08T02:50:42.811Z,99862.63
2023-11-08T02:53:09.967Z,99866.50
2023-11-08T02:55:38.057Z,99853.88
2023-11-08T02:58:05.106Z,99861.09
2023-11-08T03:00:48.682Z,99849.31
2023-11-08T03:03:15.706Z,99856.75
2023-11-08T03:05:42.720Z,99855.72
2023-11-08T03:08:09.741Z,99852.06
2023-11-08T03:10:37.155Z,99859.56
2023-11-08T03:13:04.302Z,99852.28
2023-11-08T03:15:33.146Z,99850.91
2023-11-08T03:18:01.620Z,99869.19
2023-11-08T03:20:28.542Z,99859.94
2023-11-08T03:22:56.091Z,99878.13
2023-11-08T03:25:23.808Z,99877.22
2023-11-08T03:27:51.369Z,99877.53
2023-11-08T03:30:18.721Z,99879.06
2023-11-08T03:32:47.283Z,99887.03
2023-11-08T03:35:15.936Z,99877.53
2023-11-08T03:37:43.539Z,99885.69
2023-11-08T03:40:12.035Z,99898.78
2023-11-08T03:42:39.592Z,99888.22
2023-11-08T03:45:08.430Z,99893.38
2023-11-08T03:47:35.728Z,99888.38
2023-11-08T03:50:04.940Z,99898.16
2023-11-08T03:52:32.252Z,99901.81
2023-11-08T03:54:59.293Z,99901.59
2023-11-08T03:57:26.287Z,99904.94
2023-11-08T03:59:54.630Z,99909.34
2023-11-08T04:02:22.344Z,99903.38
2023-11-08T04:04:49.926Z,99899.44
2023-11-08T04:07:24.886Z,99905.72
2023-11-08T04:09:51.831Z,99898.88
2023-11-08T04:12:23.996Z,99898.88
2023-11-08T04:14:51.321Z,99914.88
2023-11-08T04:17:18.173Z,99915.50
2023-11-08T04:19:45.117Z,99916.06
2023-11-08T04:22:12.540Z,99916.31
2023-11-08T04:24:42.286Z,99912.63
2023-11-08T04:27:09.769Z,99915.78
2023-11-08T04:29:36.640Z,99923.19
2023-11-08T04:32:04.864Z,99927.34
2023-11-08T04:34:32.247Z,99928.72
2023-11-08T04:36:59.169Z,99917.81
2023-11-08T04:39:28.685Z,99920.47
2023-11-08T04:41:57.237Z,99917.03
2023-11-08T04:44:24.315Z,99916.50
2023-11-08T04:46:51.397Z,99925.38
2023-11-08T04:49:19.382Z,99922.19
2023-11-08T04:51:46.373Z,99916.81
2023-11-08T04:54:14.965Z,99916.97
2023-11-08T04:56:42.238Z,99912.72
2023-11-08T04:59:10.413Z,99915.06
2023-11-08T05:01:37.272Z,99910.91
2023-11-08T05:04:04.683Z,99919.75
2023-11-08T05:06:32.136Z,99916.00
2023-11-08T05:08:59.312Z,99911.31
2023-11-08T05:11:26.769Z,99910.84
2023-11-08T05:13:53.796Z,99918.66
2023-11-08T05:16:23.530Z,99916.09
2023-11-08T05:18:50.934Z,99919.69
2023-11-08T05:21:18.387Z,99916.34
2023-11-08T05:23:45.469Z,99914.22
2023-11-08T05:26:12.840Z,99910.41
2023-11-08T05:28:39.863Z,99907.50
2023-11-08T05:31:07.056Z,99907.84
2023-11-08T05:33:35.484Z,99909.69
2023-11-08T05:36:02.652Z,99910.66
2023-11-08T05:38:31.984Z,99912.56
2023-11-08T05:40:59.153Z,99910.00
2023-11-08T05:43:26.549Z,99910.66
2023-11-08T05:45:53.524Z,99910.91
2023-11-08T05:48:20.626Z,99913.97
2023-11-08T05:50:48.963Z,99916.28
2023-11-08T05:53:16.151Z,99919.38
2023-11-08T05:55:44.295Z,99918.63
2023-11-08T05:58:13.684Z,99926.69
2023-11-08T06:00:42.253Z,99925.13
2023-11-08T06:03:09.490Z,99923.09
2023-11-08T06:05:36.557Z,99931.47
2023-11-08T06:08:05.452Z,99933.63
2023-11-08T06:10:34.743Z,99932.22
2023-11-08T06:13:02.840Z,99942.78
2023-11-08T06:15:30.281Z,99941.09
2023-11-08T06:17:57.821Z,99945.28
2023-11-08T06:20:24.840Z,99946.84
2023-11-08T06:22:52.035Z,99948.66
2023-11-08T06:25:20.423Z,99953.78
2023-11-08T06:27:47.862Z,99961.09
2023-11-08T06:30:15.656Z,99972.72
2023-11-08T06:32:42.791Z,99969.00
2023-11-08T06:35:10.436Z,99969.19
2023-11-08T06:37:37.512Z,99976.59
2023-11-08T06:40:07.346Z,99968.63
2023-11-08T06:42:36.215Z,99971.22
2023-11-08T06:45:04.079Z,99962.97
2023-11-08T06:47:31.913Z,99970.25
2023-11-08T06:49:59.299Z,99966.81
2023-11-08T06:52:26.611Z,99977.06
2023-11-08T06:54:53.919Z,99973.97
2023-11-08T06:57:21.137Z,99983.19
2023-11-08T06:59:49.458Z,99982.84
2023-11-08T07:02:16.402Z,99988.94
2023-11-08T07:04:46.278Z,99996.06
2023-11-08T07:07:14.144Z,99994.53
2023-11-08T07:09:41.219Z,99999.59
2023-11-08T07:12:08.729Z,100005.84
2023-11-08T07:14:35.869Z,100010.03
2023-11-08T07:17:04.425Z,100010.13
2023-11-08T07:19:31.710Z,100018.47
2023-11-08T07:21:58.895Z,100013.91
2023-11-08T07:24:25.833Z,100019.53
2023-11-08T07:26:53.592Z,100015.84
2023-11-08T07:29:20.785Z,100020.00
2023-11-08T07:31:47.708Z,100016.31
2023-11-08T07:34:16.241Z,100030.09
2023-11-08T07:36:44.472Z,100038.03
2023-11-08T07:39:13.422Z,100035.03
2023-11-08T07:41:41.702Z,100029.03
2023-11-08T07:44:10.508Z,100029.69
2023-11-08T07:46:37.910Z,100027.91
2023-11-08T07:49:05.541Z,100023.75
2023-11-08T07:51:34.067Z,100029.78
2023-11-08T07:54:00.980Z,100029.59
2023-11-08T07:56:29.253Z,100024.00
2023-11-08T07:58:56.923Z,100018.97
2023-11-08T08:01:24.270Z,100022.97
2023-11-08T08:03:51.991Z,100031.88
2023-11-08T08:06:20.056Z,100031.03
2023-11-08T08:08:48.357Z,100024.72
2023-11-08T08:11:16.993Z,100028.75
2023-11-08T08:13:44.369Z,100026.69
2023-11-08T08:16:11.232Z,100021.13
2023-11-08T08:18:39.001Z,100021.63
2023-11-08T08:21:07.884Z,100023.22
2023-11-08T08:23:34.991Z,100035.31
2023-11-08T08:26:04.249Z,100045.41
2023-11-08T08:28:33.888Z,100048.09
2023-11-08T08:31:01.191Z,100048.56
2023-11-08T08:33:28.646Z,100048.97
2023-11-08T08:35:56.017Z,100064.91
2023-11-08T08:38:24.132Z,100079.28
2023-11-08T08:40:51.053Z,100082.59
2023-11-08T08:43:21.597Z,100097.16
2023-11-08T08:45:52.402Z,100067.66
2023-11-08T08:48:19.790Z,100069.13
2023-11-08T08:50:46.787Z,100085.66
2023-11-08T08:53:14.352Z,100098.94
2023-11-08T08:55:42.988Z,100095.50
2023-11-08T08:58:10.701Z,100101.31
2023-11-08T09:00:39.143Z,100105.69
2023-11-08T09:03:06.079Z,100121.19
2023-11-08T09:05:33.796Z,100132.69
2023-11-08T09:08:00.858Z,100134.59
2023-11-08T09:10:27.992Z,100134.19
2023-11-08T09:12:55.380Z,100128.69
2023-11-08T09:15:22.941Z,100107.78
2023-11-08T09:17:51.529Z,100098.00
2023-11-08T09:20:18.841Z,100090.56
2023-11-08T09:22:45.856Z,100106.66
2023-11-08T09:25:13.080Z,100088.38
2023-11-08T09:27:41.237Z,100088.66
2023-11-08T09:30:09.591Z,100076.69
2023-11-08T09:32:36.899Z,100070.81
2023-11-08T09:35:06.439Z,100083.91
2023-11-08T09:37:33.635Z,100079.38
2023-11-08T09:40:02.789Z,100066.41
2023-11-08T09:42:30.355Z,100072.44
2023-11-08T09:45:00.669Z,100098.22
2023-11-08T09:47:28.070Z,100060.34
2023-11-08T09:49:57.527Z,100093.63
2023-11-08T09:52:27.690Z,100051.16
2023-11-08T09:54:54.766Z,100050.28
2023-11-08T09:57:24.964Z,100033.06
2023-11-08T09:59:53.101Z,100038.91
2023-11-08T10:02:20.494Z,100038.84
2023-11-08T10:04:55.264Z,100013.75
2023-11-08T10:07:24.544Z,100020.38
2023-11-08T10:09:54.127Z,100029.00
2023-11-08T10:12:22.383Z,100029.88
2023-11-08T10:14:59.031Z,100062.28
2023-11-08T10:19:29.758Z,100005.97
2023-11-08T10:20:30.467Z,99993.19
2023-11-08T10:22:58.241Z,99999.69
2023-11-08T10:25:27.107Z,100044.97
2023-11-08T10:28:03.036Z,100050.63
2023-11-08T10:30:36.859Z,99988.13
2023-11-08T10:33:09.812Z,99991.84
2023-11-08T10:35:40.598Z,99993.53
2023-11-08T10:38:12.509Z,99996.16
2023-11-08T10:40:46.063Z,99987.13
2023-11-08T10:43:21.367Z,99988.69
2023-11-08T10:45:50.553Z,99995.06
2023-11-08T10:48:21.073Z,99982.84
2023-11-08T10:50:52.863Z,99985.59
2023-11-08T10:53:19.900Z,99981.94
2023-11-08T10:55:49.769Z,99989.63
2023-11-08T10:58:21.864Z,99969.41
2023-11-08T11:00:54.976Z,99963.72
2023-11-08T11:03:23.744Z,99961.91
2023-11-08T11:05:55.414Z,99951.97
2023-11-08T11:08:23.040Z,99949.00
2023-11-08T11:10:51.441Z,99957.28
2023-11-08T11:13:32.514Z,99956.22
2023-11-08T11:16:14.414Z,99939.56
2023-11-08T11:18:53.033Z,99920.59
2023-11-08T11:21:27.275Z,99923.84
2023-11-08T11:23:54.876Z,99924.91
2023-11-08T11:26:46.731Z,99910.44
2023-11-08T11:29:20.368Z,99920.06
2023-11-08T11:31:48.048Z,99918.94
2023-11-08T11:34:44.891Z,99912.28
2023-11-08T11:37:14.836Z,99902.50
2023-11-08T11:40:04.273Z,99908.59
2023-11-08T11:42:32.976Z,99912.47
2023-11-08T11:45:01.394Z,99900.81
2023-11-08T11:47:30.958Z,99906.25
2023-11-08T11:50:00.465Z,99909.00
2023-11-08T11:52:31.090Z,99905.88
2023-11-08T11:55:00.265Z,99906.78
2023-11-08T11:57:30.077Z,99896.47
2023-11-08T12:00:01.390Z,99887.38
2023-11-08T12:02:30.580Z,99889.91
2023-11-08T12:04:59.794Z,99883.63
2023-11-08T12:07:28.355Z,99878.50
2023-11-08T12:09:56.038Z,99873.59
2023-11-08T12:12:27.677Z,99871.56
2023-11-08T12:14:55.084Z,99874.22
2023-11-08T12:17:25.681Z,99873.97
2023-11-08T12:19:55.820Z,99882.25
2023-11-08T12:22:23.861Z,99873.38
2023-11-08T12:24:52.216Z,99873.97
2023-11-08T12:27:19.191Z,99867.56
2023-11-08T12:29:46.328Z,99893.50
2023-11-08T12:32:14.100Z,99889.56
2023-11-08T12:34:44.058Z,99893.84
2023-11-08T12:37:11.898Z,99890.16
2023-11-08T12:39:39.180Z,99896.34
2023-11-08T12:42:15.753Z,99874.38
2023-11-08T12:44:47.642Z,99877.34
2023-11-08T12:47:14.868Z,99886.66
2023-11-08T12:49:43.634Z,99874.13
2023-11-08T12:52:10.900Z,99867.41
2023-11-08T12:54:38.511Z,99875.19
2023-11-08T12:57:05.801Z,99874.84
2023-11-08T12:59:32.689Z,99870.66
2023-11-08T13:02:12.819Z,99868.78
2023-11-08T13:04:41.031Z,99862.28
2023-11-08T13:07:11.341Z,99846.69
2023-11-08T13:09:39.190Z,99859.38
2023-11-08T13:12:08.987Z,99849.50
2023-11-08T13:14:36.469Z,99844.84
2023-11-08T13:17:03.453Z,99848.34
2023-11-08T13:19:31.083Z,99846.41
2023-11-08T13:21:58.058Z,99831.91
2023-11-08T13:24:26.428Z,99837.97
2023-11-08T13:26:54.718Z,99822.94
2023-11-08T13:29:22.304Z,99819.31
2023-11-08T13:31:50.693Z,99812.81
2023-11-08T13:34:18.417Z,99810.91
2023-11-08T13:36:46.406Z,99810.28
2023-11-08T13:39:13.852Z,99805.84
2023-11-08T13:41:43.679Z,99798.75
2023-11-08T13:44:10.733Z,99789.81
2023-11-08T13:46:38.216Z,99803.78
2023-11-08T13:49:08.285Z,99804.41
2023-11-08T13:51:35.580Z,99795.25
2023-11-08T13:54:02.601Z,99792.53
2023-11-08T13:56:33.370Z,99786.72
2023-11-08T13:59:03.901Z,99789.81
2023-11-08T14:01:31.095Z,99784.38
2023-11-08T14:03:58.010Z,99774.38
2023-11-08T14:06:25.429Z,99773.69
2023-11-08T14:08:55.369Z,99773.25
2023-11-08T14:11:23.558Z,99780.69
2023-11-08T14:13:50.551Z,99773.59
2023-11-08T14:16:19.747Z,99780.63
2023-11-08T14:18:46.750Z,99767.22
2023-11-08T14:21:14.579Z,99781.47
2023-11-08T14:23:41.520Z,99782.09
2023-11-08T14:26:08.562Z,99772.75
2023-11-08T14:28:36.708Z,99782.88
2023-11-08T14:31:04.514Z,99785.06
2023-11-08T14:33:33.758Z,99779.47
2023-11-08T14:36:01.109Z,99768.63
2023-11-08T14:38:28.437Z,99771.97
2023-11-08T14:40:56.672Z,99768.78
2023-11-08T14:43:24.660Z,99780.97
2023-11-08T14:45:55.631Z,99781.75
2023-11-08T14:48:25.989Z,99771.97
2023-11-08T14:50:56.905Z,99761.41
2023-11-08T14:53:24.242Z,99760.03
2023-11-08T14:55:51.941Z,99760.50
2023-11-08T14:58:18.919Z,99755.19
2023-11-08T15:00:46.568Z,99757.22
2023-11-08T15:03:13.648Z,99765.97
2023-11-08T15:05:43.220Z,99754.84
2023-11-08T15:09:49.089Z,99745.50
2023-11-08T15:10:58.511Z,99752.72
2023-11-08T15:13:26.501Z,99743.38
2023-11-08T15:15:53.953Z,99741.28
2023-11-08T15:18:23.565Z,99741.56
2023-11-08T15:20:53.297Z,99746.50
2023-11-08T15:23:24.517Z,99736.34
2023-11-08T15:25:51.856Z,99740.19
2023-11-08T15:28:20.488Z,99727.31
2023-11-08T15:30:47.449Z,99728.28
2023-11-08T15:33:16.237Z,99724.88
2023-11-08T15:35:46.326Z,99724.38
2023-11-08T15:38:14.311Z,99718.72
2023-11-08T15:40:42.821Z,99718.59
2023-11-08T15:43:12.125Z,99709.81
2023-11-08T15:45:42.565Z,99715.53
2023-11-08T15:48:10.164Z,99710.38
2023-11-08T15:50:37.720Z,99709.00
2023-11-08T15:53:06.372Z,99703.94
2023-11-08T15:55:34.604Z,99705.38
2023-11-08T15:58:04.871Z,99697.59
2023-11-08T16:00:32.309Z,99683.22
2023-11-08T16:02:59.436Z,99691.00
2023-11-08T16:05:27.131Z,99685.22
2023-11-08T16:07:54.073Z,99689.38
2023-11-08T16:10:21.259Z,99687.22
2023-11-08T16:12:48.399Z,99683.28
2023-11-08T16:15:17.854Z,99688.66
2023-11-08T16:17:47.798Z,99680.41
2023-11-08T16:20:15.536Z,99686.09
2023-11-08T16:22:42.496Z,99685.44
2023-11-08T16:25:10.544Z,99683.34
2023-11-08T16:27:43.800Z,99683.44
2023-11-08T16:30:12.439Z,99684.25
2023-11-08T16:32:43.566Z,99678.44
2023-11-08T16:35:12.317Z,99675.13
2023-11-08T16:37:40.875Z,99676.38
2023-11-08T16:40:13.656Z,99675.34
2023-11-08T16:42:40.939Z,99675.19
2023-11-08T16:45:09.284Z,99678.88
2023-11-08T16:47:36.744Z,99675.31
2023-11-08T16:50:06.889Z,99674.63
2023-11-08T16:52:33.983Z,99666.75
2023-11-08T16:55:01.269Z,99672.75
2023-11-08T16:57:28.794Z,99677.25
2023-11-08T16:59:56.993Z,99665.22
2023-11-08T17:02:23.971Z,99675.63
2023-11-08T17:04:52.192Z,99669.56
2023-11-08T17:07:23.455Z,99672.25
2023-11-08T17:09:50.723Z,99674.34
2023-11-08T17:12:18.553Z,99663.31
2023-11-08T17:14:45.801Z,99667.94
2023-11-08T17:17:12.829Z,99671.06
2023-11-08T17:19:42.893Z,99669.22
2023-11-08T17:22:10.346Z,99669.63
2023-11-08T17:24:40.734Z,99661.53
2023-11-08T17:27:08.528Z,99658.63
2023-11-08T17:29:37.973Z,99642.66
2023-11-08T17:32:06.001Z,99648.25
2023-11-08T17:34:34.017Z,99645.38
2023-11-08T17:37:01.138Z,99644.78
2023-11-08T17:39:29.709Z,99645.59
2023-11-08T17:41:58.078Z,99644.75
2023-11-08T17:44:25.061Z,99638.91
2023-11-08T17:46:53.166Z,99640.59
2023-11-08T17:49:21.227Z,99631.72
2023-11-08T17:51:48.855Z,99630.25
2023-11-08T17:54:16.285Z,99623.00
2023-11-08T17:56:47.619Z,99622.81
2023-11-08T17:59:15.909Z,99631.50
2023-11-08T18:01:45.583Z,99633.78
2023-11-08T18:04:12.838Z,99625.50
2023-11-08T18:06:40.494Z,99621.75
2023-11-08T18:09:08.715Z,99624.47
2023-11-08T18:11:36.342Z,99628.81
2023-11-08T18:14:03.300Z,99628.41
2023-11-08T18:16:32.088Z,99623.00
2023-11-08T18:19:00.189Z,99616.78
2023-11-08T18:21:27.919Z,99619.06
2023-11-08T18:23:57.220Z,99615.13
2023-11-08T18:26:24.545Z,99613.69
2023-11-08T18:28:51.963Z,99608.91
2023-11-08T18:31:21.454Z,99598.31
2023-11-08T18:33:49.938Z,99603.69
2023-11-08T18:36:17.356Z,99597.66
2023-11-08T18:38:44.434Z,99586.66
2023-11-08T18:41:11.991Z,99580.84
2023-11-08T18:43:39.090Z,99582.53
2023-11-08T18:46:06.419Z,99593.31
2023-11-08T18:48:33.805Z,99602.00
2023-11-08T18:51:02.413Z,99594.50
2023-11-08T18:53:29.747Z,99597.00
2023-11-08T18:55:56.924Z,99596.16
2023-11-08T18:58:24.341Z,99585.78
2023-11-08T19:00:52.708Z,99588.31
2023-11-08T19:03:21.004Z,99572.97
2023-11-08T19:05:48.340Z,99566.78
2023-11-08T19:08:16.993Z,99569.25
2023-11-08T19:10:45.700Z,99566.34
2023-11-08T19:13:13.673Z,99563.06
2023-11-08T19:15:42.078Z,99549.81
2023-11-08T19:18:09.214Z,99554.19
2023-11-08T19:20:36.760Z,99554.19
2023-11-08T19:23:08.509Z,99557.72
2023-11-08T19:25:46.546Z,99559.38
2023-11-08T19:28:14.588Z,99562.28
2023-11-08T19:30:43.295Z,99567.03
2023-11-08T19:33:12.445Z,99554.63
2023-11-08T19:35:40.585Z,99552.94
2023-11-08T19:38:08.434Z,99559.34
2023-11-08T19:40:36.882Z,99543.63
2023-11-08T19:43:06.805Z,99548.38
2023-11-08T19:45:37.376Z,99543.81
2023-11-08T19:48:06.955Z,99544.88
2023-11-08T19:50:35.374Z,99544.66
2023-11-08T19:53:03.802Z,99541.31
2023-11-08T19:55:33.913Z,99550.22
2023-11-08T19:58:02.809Z,99529.06
2023-11-08T20:00:31.409Z,99535.28
2023-11-08T20:02:58.956Z,99532.59
2023-11-08T20:05:26.035Z,99519.72
2023-11-08T20:07:53.406Z,99526.38
2023-11-08T20:10:20.526Z,99524.50
2023-11-08T20:12:47.671Z,99524.91
2023-11-08T20:15:15.507Z,99523.03
2023-11-08T20:17:44.266Z,99511.25
2023-11-08T20:20:12.463Z,99515.59
2023-11-08T20:22:41.713Z,99507.09
2023-11-08T20:25:09.798Z,99508.16
2023-11-08T20:27:37.535Z,99511.03
2023-11-08T20:30:07.535Z,99511.66
2023-11-08T20:32:34.961Z,99508.16
2023-11-08T20:35:03.990Z,99496.94
2023-11-08T20:37:31.492Z,99504.00
2023-11-08T20:39:59.126Z,99506.47
2023-11-08T20:42:26.814Z,99497.16
2023-11-08T20:44:53.910Z,99496.78
2023-11-08T20:47:21.129Z,99494.31
2023-11-08T20:49:49.308Z,99501.13
2023-11-08T20:52:18.778Z,99496.78
2023-11-08T20:54:48.420Z,99485.19
2023-11-08T20:57:16.068Z,99476.06
2023-11-08T20:59:44.140Z,99483.53
2023-11-08T21:02:11.738Z,99476.47
2023-11-08T21:04:39.165Z,99474.00
2023-11-08T21:07:08.600Z,99473.16
2023-11-08T21:09:39.380Z,99467.16
2023-11-08T21:12:08.623Z,99458.47
2023-11-08T21:14:38.760Z,99453.72
2023-11-08T21:17:06.533Z,99446.88
2023-11-08T21:19:34.097Z,99457.66
2023-11-08T21:22:02.082Z,99445.84
2023-11-08T21:24:32.315Z,99441.06
2023-11-08T21:27:02.324Z,99435.44
2023-11-08T21:29:33.929Z,99441.69
2023-11-08T21:32:01.523Z,99437.75
2023-11-08T21:34:28.454Z,99437.56
2023-11-08T21:36:55.465Z,99428.03
2023-11-08T21:39:22.624Z,99425.97
2023-11-08T21:41:50.527Z,99429.69
2023-11-08T21:44:18.783Z,99431.75
2023-11-08T21:46:48.861Z,99433.81
2023-11-08T21:49:16.456Z,99435.69
2023-11-08T21:51:43.812Z,99442.09
2023-11-08T21:54:11.290Z,99430.50
2023-11-08T21:56:38.641Z,99434.81
2023-11-08T21:59:06.153Z,99427.56
2023-11-08T22:01:36.097Z,99428.16
2023-11-08T22:04:04.971Z,99418.81
2023-11-08T22:06:32.974Z,99412.41
2023-11-08T22:09:00.097Z,99403.91
2023-11-08T22:11:27.024Z,99407.44
2023-11-08T22:13:54.785Z,99401.44
2023-11-08T22:16:22.641Z,99398.72
2023-11-08T22:18:52.032Z,99386.47
2023-11-08T22:21:19.756Z,99386.66
2023-11-08T22:23:46.683Z,99381.25
2023-11-08T22:26:17.081Z,99377.75
2023-11-08T22:28:44.594Z,99372.78
2023-11-08T22:31:11.850Z,99376.31
2023-11-08T22:33:39.705Z,99374.88
2023-11-08T22:36:09.197Z,99376.53
2023-11-08T22:38:37.536Z,99380.91
2023-11-08T22:41:09.638Z,99383.00
2023-11-08T22:43:38.061Z,99381.38
2023-11-08T22:46:05.497Z,99377.88
2023-11-08T22:48:32.918Z,99379.50
2023-11-08T22:51:01.130Z,99375.38
2023-11-08T22:53:30.728Z,99369.59
2023-11-08T22:55:59.190Z,99368.56
2023-11-08T22:58:27.019Z,99370.00
2023-11-08T23:00:53.935Z,99380.53
2023-11-08T23:03:22.121Z,99358.38
2023-11-08T23:05:50.195Z,99369.78
2023-11-08T23:08:17.315Z,99361.94
2023-11-08T23:10:46.191Z,99367.69
2023-11-08T23:13:13.496Z,99365.63
2023-11-08T23:15:45.596Z,99368.13
2023-11-08T23:18:12.709Z,99365.44
2023-11-08T23:20:39.970Z,99365.44
2023-11-08T23:23:07.831Z,99359.44
2023-11-08T23:25:35.427Z,99366.28
2023-11-08T23:28:04.254Z,99367.97
2023-11-08T23:30:31.855Z,99359.88
2023-11-08T23:32:59.009Z,99364.22
2023-11-08T23:35:26.286Z,99365.03
2023-11-08T23:37:53.485Z,99355.75
2023-11-08T23:40:20.806Z,99347.44
2023-11-08T23:42:49.254Z,99347.88
2023-11-08T23:45:17.835Z,99345.19
2023-11-08T23:47:44.894Z,99343.94
2023-11-08T23:50:13.048Z,99343.91
2023-11-08T23:52:40.078Z,99337.53
2023-11-08T23:55:10.312Z,99340.63
2023-11-08T23:57:40.245Z,99330.06
